• Join FlightAware (Why Join?)
  • Login
  • US Flag 
03:22AM EST


 

Airport Tracker/Info


-or-


 

Live Flight TrackerFlight Track Log ✈ UAL1021 ✈ 10-Jul-2013 ✈ KEWR - MPTO / PTY

Flight Track Log - Related Links

Times and Time Zones

All times are in EDT time to prevent confusion due to time zone crossing. See the UAL1021 flight status page for this flight to view local times or setup timezone preferences in your user account.

Time Position Orientation Groundspeed Altitude Reporting Facility
EDT Latitude Longitude Course Direction KTS MPH feet Rate Location/Type
06:37PM 40.6500 -74.1833 214° Southwest 182 209 1,300  Level New York TRACON
06:38PM 40.5836 -74.2414 214° Southwest 212 244 4,000 1,800 Climbing New York Center
06:39PM 40.5183 -74.2628 194° South 223 257 6,000 960 Climbing New York Center
06:40PM 40.4506 -74.2292 159° South 242 278 6,000  Level New York Center
06:41PM 40.3889 -74.1989 159° South 260 299 6,000 240 Level New York Center
06:42PM 40.3389 -74.1256 132° Southeast 253 291 6,500 1,020 Climbing New York Center
06:43PM 40.2994 -74.0531 125° Southeast 259 298 8,100 1,740 Climbing New York Center
06:44PM 40.2322 -74.0689 190° South 219 252 10,000 1,260 Climbing New York Center
06:45PM 40.2172 -74.1522 257° West 201 231 10,700 960 Climbing New York Center
06:46PM 40.2803 -74.2125 324° Northwest 209 241 12,000 1,260 Climbing New York Center
06:47PM 40.3336 -74.1636 35° Northeast 183 211 13,200 1,560 Climbing New York Center
06:48PM 40.2881 -74.0797 125° Southeast 174 200 15,100 1,440 Climbing New York Center
06:49PM 40.2183 -74.1169 202° Southwest 195 224 16,200 900 Climbing New York Center
06:50PM 40.1228 -74.1803 207° Southwest 315 362 17,000 1,140 Climbing New York Center
06:51PM 40.0408 -74.2686 220° Southwest 370 426 18,600 1,560 Climbing New York Center
06:54PM 39.8458 -74.4889 221° Southwest 393 452 22,400 1,320 Climbing Washington Center
06:55PM 39.7594 -74.5900 222° Southwest 406 467 23,300 1,080 Climbing Washington Center
06:56PM 39.6725 -74.6911 222° Southwest 413 475 24,600 1,200 Climbing Washington Center
06:57PM 39.5817 -74.7919 221° Southwest 418 481 25,700 900 Climbing Washington Center
06:58PM 39.4906 -74.8978 222° Southwest 429 494 26,500 840 Climbing Washington Center
06:59PM 39.3975 -75.0033 221° Southwest 440 506 27,400 840 Climbing Washington Center
07:00PM 39.3000 -75.1033 218° Southwest 446 513 28,200 780 Climbing Washington Center
07:01PM 39.1711 -75.1686 201° Southwest 445 512 29,000 900 Climbing Washington Center
07:02PM 39.0564 -75.2147 197° South 469 540 30,000 840 Climbing Washington Center
07:03PM 38.9253 -75.2714 206° Southwest 474 545 30,800 720 Climbing Washington Center
07:04PM 38.8025 -75.3225 198° South 474 545 31,500 540 Climbing Washington Center
07:05PM 38.6775 -75.3711 197° South 474 545 32,000 240 Climbing Washington Center
07:06PM 38.5672 -75.4564 211° Southwest 469 540 32,000  Level Washington Center
07:07PM 38.4567 -75.5439 212° Southwest 463 533 32,000  Level Washington Center
07:08PM 38.3525 -75.6342 214° Southwest 468 539 32,000  Level Washington Center
07:09PM 38.2564 -75.7186 215° Southwest 468 539 32,000  Level Washington Center
07:10PM 38.1542 -75.8161 217° Southwest 468 539 32,000 60 Level Washington Center
07:11PM 38.0517 -75.9161 218° Southwest 468 539 32,200 360 Climbing Washington Center
07:12PM 37.9492 -76.0158 218° Southwest 468 539 32,800 600 Climbing Washington Center
07:13PM 37.8406 -76.1097 214° Southwest 468 539 33,500 600 Climbing Washington Center
07:14PM 37.7172 -76.1642 199° South 465 535 34,000 240 Climbing Washington Center
07:15PM 37.5917 -76.2156 198° South 470 541 34,000  Level Washington Center
07:16PM 37.4664 -76.2694 199° South 476 548 34,000  Level Washington Center
07:17PM 37.3389 -76.3233 199° South 482 555 34,000  Level Washington Center
07:18PM 37.2111 -76.3769 198° South 487 560 34,000  Level Washington Center
07:19PM 37.0856 -76.4303 199° South 482 555 34,000  Level Washington Center
07:20PM 36.9561 -76.4756 196° South 482 555 34,000  Level Washington Center
07:21PM 36.8242 -76.5131 193° South 482 555 34,000  Level Washington Center
07:22PM 36.6925 -76.5503 193° South 482 555 34,000  Level Washington Center
07:23PM 36.5589 -76.5875 193° South 488 562 34,000  Level Washington Center
07:24PM 36.4269 -76.6219 192° South 488 562 34,000  Level Washington Center
07:25PM 36.2953 -76.6564 192° South 488 562 34,000  Level Washington Center
07:26PM 36.1636 -76.6881 191° South 488 562 34,000 -60 Level Washington Center
07:27PM 36.0275 -76.7222 191° South 488 562 33,900 -60 Descending Washington Center
07:28PM 35.8939 -76.7561 192° South 488 562 33,900  Level Washington Center
07:29PM 35.7600 -76.7900 192° South 488 562 34,000  Climbing Washington Center
07:30PM 35.6197 -76.8289 193° South 488 562 34,000  Level Washington Center
07:31PM 35.4858 -76.8625 192° South 483 556 34,000  Level Washington Center
07:32PM 35.3478 -76.8983 192° South 491 565 34,000  Level Washington Center
07:33PM 35.2139 -76.9319 192° South 497 572 34,000 -60 Level Washington Center
07:34PM 35.0944 -76.9653 193° South 492 566 33,900  Descending Washington Center
07:35PM 34.9606 -77.0036 193° South 492 566 34,000  Climbing Washington Center
07:36PM 34.8119 -77.0364 190° South 492 566 34,000  Level Washington Center
07:37PM 34.6781 -77.0719 192° South 492 566 34,000  Level Washington Center
07:38PM 34.5419 -77.1047 191° South 492 566 34,000  Level Washington Center
07:39PM 34.4058 -77.1378 191° South 492 566 34,000  Level Washington Center
07:40PM 34.2678 -77.1703 191° South 498 573 34,000  Level Washington Center
07:41PM 34.1297 -77.2078 193° South 503 579 34,000  Level Washington Center
07:42PM 33.9914 -77.2400 191° South 508 585 34,000  Level Washington Center
07:45PM 33.5497 -77.3503 192° South 513 590 34,000  Level Jacksonville Center
07:46PM 33.4156 -77.3811 191° South 505 581 34,000  Level Jacksonville Center
07:47PM 33.2772 -77.4169 192° South 500 575 34,000 -60 Level Jacksonville Center
07:48PM 33.1453 -77.4500 192° South 500 575 33,900  Descending Jacksonville Center
07:49PM 33.0111 -77.4828 192° South 500 575 34,000  Climbing Jacksonville Center
07:50PM 32.8767 -77.5133 191° South 500 575 34,000  Level Jacksonville Center
07:51PM 32.7425 -77.5483 192° South 505 581 34,000 -60 Level Jacksonville Center
07:52PM 32.6083 -77.5811 192° South 505 581 33,900  Descending Jacksonville Center
07:53PM 32.4739 -77.6111 191° South 500 575 34,000  Climbing Jacksonville Center
07:54PM 32.3392 -77.6386 190° South 500 575 34,000  Level Jacksonville Center
07:55PM 32.2053 -77.6756 193° South 500 575 34,000  Level Jacksonville Center
07:56PM 32.0728 -77.7053 191° South 500 575 34,000 -60 Level Jacksonville Center
07:57PM 31.9383 -77.7347 191° South 505 581 33,900  Descending Jacksonville Center
07:58PM 31.8042 -77.7742 194° South 505 581 34,000  Climbing Jacksonville Center
07:59PM 31.6719 -77.8033 191° South 500 575 33,900  Descending Jacksonville Center
08:00PM 31.5372 -77.8303 190° South 500 575 34,000  Climbing Jacksonville Center
08:01PM 31.4047 -77.8544 189° South 495 570 34,000  Level Jacksonville Center
08:02PM 31.2725 -77.8908 193° South 495 570 34,000  Level Jacksonville Center
08:03PM 31.1422 -77.9194 191° South 495 570 34,000  Level Jacksonville Center
08:04PM 31.0097 -77.9508 191° South 490 564 34,000  Level Jacksonville Center
08:05PM 30.8653 -77.9947 195° South 484 557 34,000  Level Jacksonville Center
08:06PM 30.7433 -78.0250 192° South 469 540 34,000  Level Jacksonville Center
08:07PM 30.6131 -78.0533 191° South 473 544 34,000 -60 Level Jacksonville Center
08:09PM 30.3561 -78.1106 191° South 463 533 33,900  Descending Miami Center
08:10PM 30.2267 -78.1281 187° South 473 544 34,000  Climbing Miami Center
08:11PM 30.0931 -78.1506 188° South 478 550 34,000  Level Miami Center
08:12PM 29.9719 -78.1803 192° South 474 545 34,000 -60 Level Miami Center
08:13PM 29.8364 -78.1953 185° South 474 545 33,900 -60 Descending Miami Center
08:14PM 29.7047 -78.2175 188° South 474 545 33,900  Level Miami Center
08:15PM 29.5772 -78.2375 188° South 471 542 34,000  Climbing Miami Center
08:16PM 29.4497 -78.2597 189° South 478 550 33,900  Descending Miami Center
08:17PM 29.3225 -78.2794 188° South 472 543 34,000  Climbing Miami Center
08:18PM 29.1886 -78.2944 186° South 467 537 34,000  Level Miami Center
08:19PM 29.0611 -78.3167 189° South 467 537 34,000  Level Miami Center
08:20PM 28.9358 -78.3386 189° South 466 536 34,000 -60 Level Miami Center
08:21PM 28.8064 -78.3558 187° South 472 543 33,900 -60 Descending Miami Center
08:22PM 28.6808 -78.3778 189° South 472 543 33,900  Level Miami Center
08:23PM 28.5469 -78.3950 186° South 470 541 34,000  Climbing Miami Center
08:24PM 28.4217 -78.4144 188° South 470 541 33,900 -60 Descending Miami Center
08:25PM 28.2919 -78.4364 188° South 470 541 33,900  Level Miami Center
08:26PM 28.1622 -78.4556 187° South 470 541 34,000  Climbing Miami Center
08:27PM 28.0306 -78.4750 187° South 470 541 34,000  Level Miami Center
08:28PM 27.8989 -78.4967 188° South 470 541 34,000 -60 Level Miami Center
08:29PM 27.7711 -78.5158 188° South 470 541 33,900  Descending Miami Center
08:30PM 27.6436 -78.5353 188° South 464 534 34,000  Climbing Miami Center
08:31PM 27.5139 -78.5567 188° South 464 534 34,000  Level Miami Center
08:32PM 27.3736 -78.5756 187° South 469 540 34,000  Level Miami Center
08:33PM 27.2461 -78.5947 188° South 469 540 34,000 -60 Level Miami Center
08:34PM 27.1183 -78.6161 188° South 464 534 33,900 -60 Descending Miami Center
08:35PM 26.9867 -78.6375 188° South 469 540 33,900  Level Miami Center
08:36PM 26.8569 -78.6567 188° South 469 540 34,000  Climbing Miami Center
08:37PM 26.7356 -78.6733 187° South 464 534 34,000 -60 Level Miami Center
08:38PM 26.6203 -78.6900 187° South 469 540 33,900  Descending Miami Center
08:39PM 26.4906 -78.7089 187° South 474 545 34,000  Climbing Miami Center
08:40PM 26.3608 -78.7278 187° South 474 545 34,000  Level Miami Center
08:41PM 26.2247 -78.7442 186° South 474 545 34,000  Level Miami Center
08:42PM 26.1014 -78.7656 189° South 474 545 34,000  Level Miami Center
08:43PM 25.9672 -78.7911 190° South 484 557 34,000 120 Level Miami Center
08:44PM 25.8417 -78.8075 187° South 484 557 34,300 480 Climbing Miami Center
08:45PM 25.7078 -78.8283 188° South 478 550 35,000 300 Climbing Miami Center
08:46PM 25.5842 -78.8447 187° South 470 541 35,000  Level Miami Center
08:47PM 25.4586 -78.8636 188° South 464 534 35,000  Level Miami Center
08:48PM 25.3308 -78.8819 187° South 464 534 35,000  Level Miami Center
08:49PM 25.2053 -78.9031 189° South 464 534 35,000  Level Miami Center
08:50PM 25.0753 -78.9192 186° South 464 534 35,000  Level Miami Center
08:51PM 24.9456 -78.9375 187° South 465 535 35,000  Level Miami Center
08:52PM 24.8178 -78.9514 186° South 457 526 35,000  Level Miami Center
08:53PM 24.6881 -78.9700 187° South 465 535 35,000  Level Miami Center
08:54PM 24.5667 -78.9906 189° South 471 542 35,000  Level Miami Center
08:55PM 24.4411 -79.0067 187° South 471 542 35,000  Level Miami Center
08:56PM 24.3217 -79.0297 190° South 464 534 35,000  Level Miami Center
08:57PM 24.1917 -79.0436 186° South 463 533 35,000  Level Miami Center
08:58PM 24.0619 -79.0594 186° South 465 535 35,000  Level Miami Center
08:59PM 23.9408 -79.0664 183° South 460 529 35,000  Level Miami Center
09:01PM 23.7581 -79.0410 173° South  Level FlightAware Approximate
09:08PM 22.9052 -78.9233 173° South  Level FlightAware Approximate
09:09PM 22.7834 -78.9066 173° South  Level FlightAware Approximate
09:10PM 22.6615 -78.8899 173° South  Level FlightAware Approximate
09:11PM 22.5397 -78.8733 173° South  Level FlightAware Approximate
09:12PM 22.4178 -78.8567 173° South  Level FlightAware Approximate
09:13PM 22.2960 -78.8401 173° South  Level FlightAware Approximate
09:14PM 22.1741 -78.8236 173° South  Level FlightAware Approximate
09:15PM 22.0523 -78.8071 173° South  Level FlightAware Approximate
09:16PM 21.9301 -78.8058 184° South  Level FlightAware Approximate
09:17PM 21.8077 -78.8160 184° South  Level FlightAware Approximate
09:18PM 21.6852 -78.8262 184° South  Level FlightAware Approximate
09:19PM 21.5628 -78.8364 184° South  Level FlightAware Approximate
09:20PM 21.4403 -78.8466 184° South  Level FlightAware Approximate
09:21PM 21.3178 -78.8546 183° South  Level FlightAware Approximate
09:22PM 21.1951 -78.8614 183° South  Level FlightAware Approximate
09:23PM 21.0725 -78.8682 183° South  Level FlightAware Approximate
09:24PM 20.9498 -78.8750 183° South  Level FlightAware Approximate
09:25PM 20.8272 -78.8818 183° South  Level FlightAware Approximate
09:26PM 20.7045 -78.8893 183° South  Level FlightAware Approximate
09:27PM 20.5819 -78.8970 183° South  Level FlightAware Approximate
09:28PM 20.4594 -78.9047 183° South  Level FlightAware Approximate
09:29PM 20.3368 -78.9124 183° South  Level FlightAware Approximate
09:30PM 20.2141 -78.9200 183° South  Level FlightAware Approximate
09:31PM 20.0916 -78.9276 183° South  Level FlightAware Approximate
09:32PM 19.9689 -78.9351 183° South  Level FlightAware Approximate
09:33PM 19.8463 -78.9423 183° South  Level FlightAware Approximate
09:34PM 19.7237 -78.9494 183° South  Level FlightAware Approximate
09:35PM 19.6010 -78.9565 183° South  Level FlightAware Approximate
09:36PM 19.4784 -78.9636 183° South  Level FlightAware Approximate
09:37PM 19.3558 -78.9707 183° South  Level FlightAware Approximate
09:38PM 19.2332 -78.9778 183° South  Level FlightAware Approximate
09:39PM 19.1105 -78.9849 183° South  Level FlightAware Approximate
09:40PM 18.9879 -78.9920 183° South  Level FlightAware Approximate
09:41PM 18.8653 -78.9990 183° South  Level FlightAware Approximate
09:42PM 18.7426 -79.0061 183° South  Level FlightAware Approximate
09:43PM 18.6200 -79.0131 183° South  Level FlightAware Approximate
09:44PM 18.4974 -79.0202 183° South  Level FlightAware Approximate
09:45PM 18.3748 -79.0272 183° South  Level FlightAware Approximate
09:46PM 18.2521 -79.0342 183° South  Level FlightAware Approximate
09:47PM 18.1295 -79.0412 183° South  Level FlightAware Approximate
09:48PM 18.0069 -79.0482 183° South  Level FlightAware Approximate
09:49PM 17.8842 -79.0552 183° South  Level FlightAware Approximate
09:50PM 17.7616 -79.0621 183° South  Level FlightAware Approximate
09:51PM 17.6390 -79.0691 183° South  Level FlightAware Approximate
09:52PM 17.5163 -79.0760 183° South  Level FlightAware Approximate
09:53PM 17.3937 -79.0830 183° South  Level FlightAware Approximate
09:54PM 17.2711 -79.0899 183° South  Level FlightAware Approximate
09:55PM 17.1485 -79.0968 183° South  Level FlightAware Approximate
09:56PM 17.0258 -79.1037 183° South  Level FlightAware Approximate
09:57PM 16.9032 -79.1106 183° South  Level FlightAware Approximate
09:58PM 16.7806 -79.1175 183° South  Level FlightAware Approximate
09:59PM 16.6579 -79.1244 183° South  Level FlightAware Approximate
10:00PM 16.5353 -79.1313 183° South  Level FlightAware Approximate
10:01PM 16.4127 -79.1382 183° South  Level FlightAware Approximate
10:02PM 16.2900 -79.1450 183° South  Level FlightAware Approximate
10:03PM 16.1674 -79.1519 183° South  Level FlightAware Approximate
10:04PM 16.0448 -79.1587 183° South  Level FlightAware Approximate
10:05PM 15.9221 -79.1656 183° South  Level FlightAware Approximate
10:06PM 15.7995 -79.1724 183° South  Level FlightAware Approximate
10:07PM 15.6769 -79.1792 183° South  Level FlightAware Approximate
10:09PM 40.4485 -74.2319 191° South  Level FlightAware Approximate
10:10PM 40.3264 -74.2633 191° South  Level FlightAware Approximate
10:11PM 40.2044 -74.2946 191° South  Level FlightAware Approximate
10:12PM 40.0823 -74.3259 191° South  Level FlightAware Approximate
10:13PM 39.9597 -74.3530 183° South  Level Estimated
10:14PM 39.8376 -74.3832 191° South  Level FlightAware Approximate
10:15PM 39.7154 -74.4133 191° South  Level FlightAware Approximate
10:16PM 39.5932 -74.4432 191° South  Level FlightAware Approximate
10:17PM 39.4710 -74.4731 191° South  Level FlightAware Approximate
10:18PM 39.3487 -74.5029 191° South  Level FlightAware Approximate
10:19PM 39.2265 -74.5325 191° South  Level FlightAware Approximate
10:20PM 39.1043 -74.5621 191° South  Level FlightAware Approximate
10:21PM 38.9821 -74.5915 191° South  Level FlightAware Approximate
10:22PM 38.8598 -74.6208 191° South  Level FlightAware Approximate
10:23PM 38.7376 -74.6501 191° South  Level FlightAware Approximate
10:24PM 38.6149 -74.6760 183° South  Level Estimated
10:25PM 38.4924 -74.7036 190° South  Level FlightAware Approximate
10:26PM 38.3699 -74.7310 190° South  Level FlightAware Approximate
10:27PM 38.2474 -74.7583 190° South  Level FlightAware Approximate
10:28PM 38.1249 -74.7855 190° South  Level FlightAware Approximate
10:29PM 38.0015 -74.8128 190° South  Level FlightAware Approximate
10:30PM 37.8780 -74.8401 190° South  Level FlightAware Approximate
10:31PM 37.7546 -74.8672 190° South  Level FlightAware Approximate
10:32PM 37.6311 -74.8943 190° South  Level FlightAware Approximate
10:33PM 37.5076 -74.9212 190° South  Level FlightAware Approximate
10:34PM 37.3842 -74.9481 190° South  Level FlightAware Approximate
10:35PM 37.2607 -74.9749 190° South  Level FlightAware Approximate
10:36PM 37.1372 -75.0016 190° South  Level FlightAware Approximate
10:37PM 37.0137 -75.0283 190° South  Level FlightAware Approximate
10:38PM 36.8903 -75.0548 190° South  Level FlightAware Approximate
10:39PM 36.7668 -75.0813 190° South  Level FlightAware Approximate
10:40PM 36.6432 -75.1076 190° South  Level FlightAware Approximate
10:41PM 36.5197 -75.1339 190° South  Level FlightAware Approximate
10:42PM 36.3962 -75.1601 190° South  Level FlightAware Approximate
10:43PM 36.2727 -75.1862 190° South  Level FlightAware Approximate
10:44PM 36.1492 -75.2122 190° South  Level FlightAware Approximate
10:45PM 36.0256 -75.2382 190° South  Level FlightAware Approximate
10:46PM 35.9021 -75.2641 190° South  Level FlightAware Approximate
10:47PM 35.7783 -75.2881 183° South  Level Estimated
10:48PM 35.6548 -75.3136 190° South  Level FlightAware Approximate
10:49PM 35.5312 -75.3391 190° South  Level FlightAware Approximate
10:50PM 35.4074 -75.3629 186° South  Level Estimated
10:51PM 35.2838 -75.3881 189° South  Level FlightAware Approximate
10:52PM 35.1600 -75.4117 182° South  Level Estimated
10:53PM 35.0363 -75.4365 189° South  Level FlightAware Approximate
10:54PM 34.9127 -75.4613 189° South  Level FlightAware Approximate
10:55PM 34.7889 -75.4847 184° South  Level Estimated
10:56PM 34.6652 -75.5091 189° South  Level FlightAware Approximate
10:57PM 34.5415 -75.5334 189° South  Level FlightAware Approximate
10:58PM 34.4178 -75.5576 189° South  Level FlightAware Approximate
10:59PM 34.2939 -75.5808 180° South  Level Estimated
11:00PM 34.1701 -75.6039 184° South  Level Estimated
11:01PM 34.0464 -75.6277 189° South  Level FlightAware Approximate
11:02PM 33.9225 -75.6506 180° South  Level Estimated
11:03PM 33.7987 -75.6735 33° Northeast  Level Estimated
11:04PM 33.6748 -75.6963 37° Northeast  Level Estimated
11:05PM 33.5509 -75.7190 31° Northeast  Level Estimated
11:06PM 33.4271 -75.7417 31° Northeast  Level Estimated
11:07PM 33.3032 -75.7643 31° Northeast  Level Estimated
11:08PM 33.1793 -75.7868 31° Northeast  Level Estimated
11:09PM 33.0555 -75.8093 31° Northeast  Level Estimated
11:10PM 32.9316 -75.8317 31° Northeast  Level Estimated
11:11PM 32.8077 -75.8540 31° Northeast  Level Estimated
11:12PM 32.6838 -75.8763 31° Northeast  Level Estimated
11:13PM 32.5599 -75.8986 31° Northeast  Level Estimated
11:14PM 32.4360 -75.9207 31° Northeast  Level Estimated
11:15PM 32.3121 -75.9428 31° Northeast  Level Estimated
11:16PM 32.1882 -75.9649 31° Northeast  Level Estimated
11:17PM 32.0643 -75.9868 31° Northeast  Level Estimated
11:18PM 31.9404 -76.0088 31° Northeast  Level Estimated
11:19PM 31.8165 -76.0306 31° Northeast  Level Estimated
11:20PM 31.6925 -76.0524 31° Northeast  Level Estimated
11:21PM 31.5686 -76.0742 31° Northeast  Level Estimated
11:22PM 31.4447 -76.0959 31° Northeast  Level Estimated
11:23PM 31.3208 -76.1175 31° Northeast  Level Estimated
11:24PM 31.1968 -76.1391 31° Northeast  Level Estimated
11:25PM 31.0729 -76.1606 31° Northeast  Level Estimated
11:26PM 30.9489 -76.1820 31° Northeast  Level Estimated
11:27PM 30.8250 -76.2035 31° Northeast  Level Estimated
11:28PM 30.7010 -76.2248 31° Northeast  Level Estimated
11:29PM 30.5771 -76.2461 31° Northeast  Level Estimated
11:30PM 30.4531 -76.2673 31° Northeast  Level Estimated
11:31PM 30.3292 -76.2885 31° Northeast  Level Estimated
11:32PM 30.2052 -76.3097 31° Northeast  Level Estimated
11:33PM 30.0812 -76.3307 31° Northeast  Level Estimated
11:34PM 29.9573 -76.3518 31° Northeast  Level Estimated
11:35PM 29.8333 -76.3727 31° Northeast  Level Estimated
11:36PM 29.7093 -76.3937 31° Northeast  Level Estimated
11:37PM 29.5853 -76.4145 31° Northeast  Level Estimated
11:38PM 29.4614 -76.4354 31° Northeast  Level Estimated
11:39PM 29.3374 -76.4561 31° Northeast  Level Estimated
11:40PM 29.2134 -76.4769 31° Northeast  Level Estimated
11:41PM 29.0894 -76.4975 31° Northeast  Level Estimated
11:42PM 28.9654 -76.5181 31° Northeast  Level Estimated
11:43PM 28.8414 -76.5387 31° Northeast  Level Estimated
11:44PM 28.7174 -76.5592 31° Northeast  Level Estimated
11:45PM 28.5934 -76.5797 31° Northeast  Level Estimated
11:46PM 28.4694 -76.6001 31° Northeast  Level Estimated
11:47PM 28.3454 -76.6205 31° Northeast  Level Estimated
11:48PM 28.2213 -76.6408 31° Northeast  Level Estimated
11:49PM 28.0973 -76.6611 31° Northeast  Level Estimated
11:50PM 27.9733 -76.6814 31° Northeast  Level Estimated
11:51PM 27.8493 -76.7016 31° Northeast  Level Estimated
11:52PM 27.7253 -76.7217 31° Northeast  Level Estimated
11:53PM 27.6012 -76.7418 31° Northeast  Level Estimated
11:54PM 27.4772 -76.7618 31° Northeast  Level Estimated
11:55PM 27.3532 -76.7819 31° Northeast  Level Estimated
11:56PM 27.2291 -76.8018 31° Northeast  Level Estimated
11:57PM 27.1051 -76.8217 31° Northeast  Level Estimated
11:58PM 26.9811 -76.8416 31° Northeast  Level Estimated
11:59PM 26.8570 -76.8614 31° Northeast  Level Estimated
12:00AM 26.7330 -76.8812 31° Northeast  Level Estimated
12:01AM 26.6089 -76.9010 31° Northeast  Level Estimated
12:02AM 26.4848 -76.9207 31° Northeast  Level Estimated
12:03AM 26.3608 -76.9403 31° Northeast  Level Estimated
12:04AM 26.2367 -76.9599 31° Northeast  Level Estimated
12:05AM 26.1127 -76.9795 31° Northeast  Level Estimated
12:06AM 25.9886 -76.9990 31° Northeast  Level Estimated
12:07AM 25.8645 -77.0185 31° Northeast  Level Estimated
12:08AM 25.7405 -77.0380 31° Northeast  Level Estimated
12:09AM 25.6164 -77.0574 31° Northeast  Level Estimated
12:10AM 25.4923 -77.0768 31° Northeast  Level Estimated
12:11AM 25.3682 -77.0961 31° Northeast  Level Estimated
12:12AM 25.2442 -77.1154 31° Northeast  Level Estimated
12:13AM 25.1201 -77.1346 31° Northeast  Level Estimated
12:14AM 24.9960 -77.1538 31° Northeast  Level Estimated
12:15AM 24.8719 -77.1730 31° Northeast  Level Estimated
12:16AM 24.7478 -77.1921 31° Northeast  Level Estimated
12:17AM 24.6237 -77.2112 31° Northeast  Level Estimated
12:18AM 24.4996 -77.2303 31° Northeast  Level Estimated
12:19AM 24.3755 -77.2493 31° Northeast  Level Estimated
12:20AM 24.2514 -77.2683 31° Northeast  Level Estimated
12:21AM 24.1273 -77.2872 31° Northeast  Level Estimated
12:22AM 24.0032 -77.3062 31° Northeast  Level Estimated
12:23AM 23.8791 -77.3250 31° Northeast  Level Estimated
12:24AM 23.7550 -77.3439 31° Northeast  Level Estimated
12:25AM 23.6309 -77.3627 31° Northeast  Level Estimated
12:26AM 23.5068 -77.3814 31° Northeast  Level Estimated
12:27AM 23.3827 -77.4002 31° Northeast  Level Estimated
12:28AM 23.2585 -77.4189 31° Northeast  Level Estimated
12:29AM 23.1344 -77.4375 31° Northeast  Level Estimated
12:30AM 23.0103 -77.4562 31° Northeast  Level Estimated
12:31AM 22.8862 -77.4747 31° Northeast  Level Estimated
12:32AM 22.7621 -77.4933 31° Northeast  Level Estimated
12:33AM 22.6379 -77.5118 31° Northeast  Level Estimated
12:34AM 22.5138 -77.5303 31° Northeast  Level Estimated
12:35AM 22.3897 -77.5488 31° Northeast  Level Estimated
12:36AM 22.2655 -77.5672 31° Northeast  Level Estimated
12:37AM 22.1414 -77.5856 31° Northeast  Level Estimated
12:38AM 22.0172 -77.6040 31° Northeast  Level Estimated
12:39AM 21.8931 -77.6223 31° Northeast  Level Estimated
12:40AM 21.7690 -77.6406 31° Northeast  Level Estimated
12:41AM 21.6448 -77.6588 31° Northeast  Level Estimated
12:42AM 21.5207 -77.6771 31° Northeast  Level Estimated
12:43AM 21.3965 -77.6953 31° Northeast  Level Estimated
12:44AM 21.2724 -77.7134 31° Northeast  Level Estimated
12:45AM 21.1482 -77.7316 31° Northeast  Level Estimated
12:46AM 21.0240 -77.7497 31° Northeast  Level Estimated
12:47AM 20.8999 -77.7678 31° Northeast  Level Estimated
12:48AM 20.7757 -77.7858 31° Northeast  Level Estimated
12:49AM 20.6516 -77.8038 31° Northeast  Level Estimated
12:50AM 20.5274 -77.8218 31° Northeast  Level Estimated
12:51AM 20.4032 -77.8398 31° Northeast  Level Estimated
12:52AM 20.2791 -77.8577 31° Northeast  Level Estimated
12:53AM 20.1549 -77.8756 31° Northeast  Level Estimated
12:54AM 20.0307 -77.8935 31° Northeast  Level Estimated
12:55AM 19.9066 -77.9113 31° Northeast  Level Estimated
12:56AM 19.7824 -77.9292 31° Northeast  Level Estimated
12:57AM 19.6582 -77.9470 31° Northeast  Level Estimated
12:58AM 19.5340 -77.9647 31° Northeast  Level Estimated
12:59AM 19.4099 -77.9825 31° Northeast  Level Estimated
01:00AM 19.2857 -78.0002 31° Northeast  Level Estimated